Terminal Aerodrome Forecast
Issued by NWS

Home | Current Version | Previous Version | Text Only | Print | Product List | Glossary Off
Versions: 1 2 3 4 5 6 7 8 9 10 11 12 13 14 15 16

000
FTUS43 KMPX 271120
TAFRWF
TAF
KRWF 271120Z 2712/2812 14004KT P6SM -RA SCT014 OVC022
     FM271600 15006KT P6SM VCSH BKN025
     FM271800 15006KT P6SM BKN050
     FM280000 15006KT P6SM SCT070
     FM280900 15006KT P6SM VCTS BKN070CB=

USA.gov is the U.S. government's official web portal to all federal, state and local government web resources and services.